KESWICK RESERVOIR (KES)

Elevation: 596' · SACRAMENTO R basin · Operator: US Bureau of Reclamation

Provisional data, subject to change.
Query executed Saturday at 6:35:02

Select a sensor type for a plot of data.
Note: Reservoir Flows are daily averages.

Earlier

Date RES ELE    STORAGE    RES CHG    OUTFLOW    INFLOW   
 FEET   AF   AF   CFS   CFS  
11/11/2016 578.07 18449 -727 4866 4500
11/12/2016 577.97 18394 -55 4866 4839
11/13/2016 579.17 19058 664 4865 5201
11/14/2016 579.98 19513 455 4863 5092
11/15/2016 581.31 20282 769 4779 5167
11/16/2016 582.80 21164 882 4865 5310
11/17/2016 583.07 21325 161 4866 4947
11/18/2016 581.62 20463 -862 4864 4432
11/19/2016 581.36 20311 -152 4866 4789
11/20/2016 582.07 20728 417 4862 5072
11/21/2016 581.55 20422 -306 4865 4711
11/22/2016 582.96 21259 837 4864 5287
11/23/2016 584.58 22248 989 4864 5363
11/24/2016 583.39 21520 -728 4866 4500
11/25/2016 583.61 21653 133 4861 4929
11/26/2016 583.62 21659 6 4814 4817
11/27/2016 584.61 22266 607 4815 5121
11/28/2016 584.67 22303 37 4810 4829
11/29/2016 584.08 21939 -364 4816 4632
11/30/2016 584.51 22205 266 4816 4950
12/01/2016 582.56 21020 -1185 4816 4219
12/02/2016 581.94 20651 -369 4832 4647
12/03/2016 581.77 20551 -100 4842 4793
12/04/2016 581.54 20416 -135 4840 4773
12/05/2016 580.11 19587 -829 4841 4423
12/06/2016 578.23 18537 -1050 4841 4313
12/07/2016 577.26 18008 -529 4838 4572
12/08/2016 579.62 19310 1302 4835 5491
12/09/2016 581.57 20434 1124 4840 5407
12/10/2016 -- -- -- -- --

Later | Latest

Warning! This data is preliminary and subject to revision.

Show KES Map | Plot KES Data | 1 Month KES Data | Real-Time KES Data | KES Info